Accueil
METAR-TAF:

METAR-TAF

Aéroports :

Komatsujima, Japon

latitude: 34-00N, longitude: 134-38E, altitude: 3 m

Observation

Le bulletin a été fait il y a 22 heures et 41 minutes, à 05:29 UTC
Vent 20 kt de nord avec des rafales jusqu'à 30 kt, variant entre nord/nord-ouest et nord/nord-est
Température 14°C
Humidité 55%
Pression 1017 hPa
Visibilité 10 km ou plus
Quelques nuages à une hauteur de 3000 ft
Nuages épars à une hauteur de 5000 ft

METAR: RJOP 020529Z 36020G30KT 330V030 9999 FEW030 SCT050 14/05 Q1017 RMK 1CU030 3SC050 A3005

Heure: 13:10 (04:10 UTC)


TAF: absent

Observations et prévisions météorologiques de plus de 4000 aéroports (messages METAR et TAF).

Les stations disponibles sont représentées par des disques jaunes et rouges sur la carte.

Passer la souris dessus pour voir le nom de la station.

Cliquer dessus pour voir les observations et prévisions météorologiques.

Pour changer de carte: cliquez sur les boutons verts avec une croix noire pour zoomer, sur le bouton vert avec un tiret pour effectuer un zoom arrière, ou sur les flèches vertes pour les cartes adjacentes.


METAR-TAF: